Time;durP1;ratioP1;P1;durP2;ratioP2;P2;SDS_P1;SDS_P2;PMS_P1;PMS_P2;Temp;Humidity;BMP_temperature;BMP_pressure;BME280_temperature;BME280_humidity;BME280_pressure;Samples;Min_cycle;Max_cycle;Signal;HPM_P1;HPM_P2
2023/06/27 00:01:40;;;;;;;5.22;2.00;;;15.60;99.90;;;;;;5020371;28;20032;-33
2023/06/27 00:04:09;;;;;;;2.53;2.10;;;15.60;99.90;;;;;;5018187;28;20064;-33
2023/06/27 00:06:40;;;;;;;4.43;2.33;;;15.60;99.90;;;;;;5023976;28;20035;-33
2023/06/27 00:09:10;;;;;;;2.10;1.90;;;15.60;99.90;;;;;;5017686;28;20140;-33
2023/06/27 00:11:37;;;;;;;3.25;2.25;;;15.60;99.90;;;;;;5021023;28;20080;-34
2023/06/27 00:14:04;;;;;;;4.57;2.53;;;15.60;99.90;;;;;;5018542;28;20101;-33
2023/06/27 00:16:34;;;;;;;5.75;2.33;;;15.60;99.90;;;;;;5024745;28;20033;-33
2023/06/27 00:19:02;;;;;;;2.85;2.35;;;15.30;99.90;;;;;;5023571;28;20038;-36
2023/06/27 00:21:29;;;;;;;3.47;2.05;;;15.40;99.90;;;;;;5023232;28;20136;-33
2023/06/27 00:23:57;;;;;;;7.22;2.60;;;15.30;99.90;;;;;;5020615;28;20069;-38
2023/06/27 00:26:23;;;;;;;3.90;2.22;;;15.20;99.90;;;;;;5022938;28;20041;-34
2023/06/27 00:28:49;;;;;;;4.70;2.33;;;15.30;99.90;;;;;;5021470;28;20487;-35
2023/06/27 00:31:14;;;;;;;3.42;1.88;;;15.30;99.90;;;;;;5019926;28;20034;-33
2023/06/27 00:33:40;;;;;;;5.93;2.53;;;15.20;99.90;;;;;;5022400;28;20034;-34
2023/06/27 00:36:06;;;;;;;4.07;2.20;;;15.00;99.90;;;;;;5023807;28;20036;-30
2023/06/27 00:38:32;;;;;;;4.90;2.08;;;15.00;99.90;;;;;;5019694;28;20040;-33
2023/06/27 00:40:58;;;;;;;3.45;2.13;;;15.10;99.90;;;;;;5021977;28;20391;-30
2023/06/27 00:43:23;;;;;;;3.92;2.00;;;15.00;99.90;;;;;;5025254;28;20055;-32
2023/06/27 00:45:52;;;;;;;4.65;2.40;;;14.90;99.90;;;;;;5022311;28;20036;-35
2023/06/27 00:48:19;;;;;;;6.07;2.40;;;14.70;99.90;;;;;;5027391;28;20104;-30
2023/06/27 00:50:45;;;;;;;2.78;2.00;;;14.50;99.90;;;;;;5025726;28;20053;-30
2023/06/27 00:53:12;;;;;;;3.42;2.15;;;14.50;99.90;;;;;;5024520;28;20079;-32
2023/06/27 00:55:39;;;;;;;5.15;2.15;;;14.50;99.90;;;;;;5025486;28;20041;-31
2023/06/27 00:58:06;;;;;;;4.55;2.13;;;14.50;99.90;;;;;;5022419;28;20509;-30
2023/06/27 01:00:32;;;;;;;4.60;2.03;;;14.40;99.90;;;;;;5022354;28;20080;-31
2023/06/27 01:02:57;;;;;;;4.95;2.10;;;14.30;99.90;;;;;;5022910;28;20029;-31
2023/06/27 01:05:24;;;;;;;3.85;1.95;;;14.30;99.90;;;;;;5024273;28;20029;-33
2023/06/27 01:07:56;;;;;;;6.70;2.20;;;14.20;99.90;;;;;;5022269;28;20029;-31
2023/06/27 01:10:26;;;;;;;3.28;2.03;;;14.30;99.90;;;;;;5022982;28;20022;-32
2023/06/27 01:13:04;;;;;;;3.85;1.92;;;14.20;99.90;;;;;;5022643;28;20095;-31
2023/06/27 01:15:31;;;;;;;4.60;2.05;;;14.30;99.90;;;;;;5020293;28;20031;-30
2023/06/27 01:17:58;;;;;;;3.60;1.88;;;14.20;99.90;;;;;;5022645;28;20076;-31
2023/06/27 01:20:25;;;;;;;2.58;2.35;;;14.20;99.90;;;;;;5021941;28;20029;-33
2023/06/27 01:22:59;;;;;;;6.80;2.20;;;14.10;99.90;;;;;;5027908;28;20033;-32
2023/06/27 01:25:27;;;;;;;4.22;2.10;;;13.90;99.90;;;;;;5023942;28;20021;-32
2023/06/27 01:27:53;;;;;;;3.23;1.90;;;13.90;99.90;;;;;;5024128;28;20336;-31
2023/06/27 01:30:19;;;;;;;4.55;2.45;;;13.90;99.90;;;;;;5024441;28;20555;-32
2023/06/27 01:32:53;;;;;;;4.05;2.50;;;14.00;99.90;;;;;;5022537;28;20124;-34
2023/06/27 01:35:34;;;;;;;3.03;1.80;;;14.10;99.90;;;;;;5027703;28;20030;-31
2023/06/27 01:38:04;;;;;;;4.75;2.13;;;14.20;99.90;;;;;;5023435;28;20034;-35
2023/06/27 01:40:33;;;;;;;3.40;1.98;;;14.10;99.90;;;;;;5027042;28;20037;-32
2023/06/27 01:43:03;;;;;;;7.30;2.40;;;14.20;99.90;;;;;;5025100;28;20533;-30
2023/06/27 01:45:29;;;;;;;4.18;1.85;;;14.10;99.90;;;;;;5021970;28;20037;-41
2023/06/27 01:47:57;;;;;;;2.00;1.80;;;14.10;99.90;;;;;;5021554;28;20030;-40
2023/06/27 01:50:24;;;;;;;3.47;1.80;;;14.10;99.90;;;;;;5021400;28;20136;-41
2023/06/27 01:52:49;;;;;;;3.78;1.88;;;14.20;99.90;;;;;;5020176;28;20048;-42
2023/06/27 01:55:15;;;;;;;5.75;2.00;;;14.10;99.90;;;;;;5026734;28;20025;-37
2023/06/27 01:57:41;;;;;;;5.72;2.20;;;14.00;99.90;;;;;;5028751;28;20825;-41
2023/06/27 02:00:10;;;;;;;5.68;1.90;;;14.00;99.90;;;;;;5024923;28;20383;-42
2023/06/27 02:02:35;;;;;;;4.15;2.13;;;14.00;99.90;;;;;;5023853;28;20719;-41
2023/06/27 02:05:01;;;;;;;3.65;1.70;;;13.90;99.90;;;;;;5026915;28;20037;-39
2023/06/27 02:07:27;;;;;;;2.60;2.03;;;13.90;99.90;;;;;;5026447;28;20402;-40
2023/06/27 02:09:52;;;;;;;4.07;2.10;;;13.80;99.90;;;;;;5021992;28;20030;-41
2023/06/27 02:12:18;;;;;;;3.47;2.15;;;13.70;99.90;;;;;;5023554;28;20638;-41
2023/06/27 02:14:43;;;;;;;4.32;1.98;;;13.60;99.90;;;;;;5023831;28;20121;-40
2023/06/27 02:17:10;;;;;;;2.45;1.80;;;13.40;99.90;;;;;;5024052;28;20025;-42
2023/06/27 02:19:36;;;;;;;3.22;1.77;;;13.50;99.90;;;;;;5027465;28;20036;-40
2023/06/27 02:22:02;;;;;;;4.65;1.88;;;13.40;99.90;;;;;;5022157;28;20029;-41
2023/06/27 02:24:27;;;;;;;3.25;1.83;;;13.50;99.90;;;;;;5026737;28;20517;-41
2023/06/27 02:26:53;;;;;;;5.03;1.95;;;13.50;99.90;;;;;;5006422;28;20037;-39
2023/06/27 02:29:19;;;;;;;3.60;1.77;;;13.50;99.90;;;;;;5024384;28;20025;-41
2023/06/27 02:31:44;;;;;;;4.43;1.85;;;13.50;99.90;;;;;;5023523;28;20136;-42
2023/06/27 02:34:10;;;;;;;2.58;1.80;;;13.60;99.90;;;;;;5024683;28;20411;-40
2023/06/27 02:36:35;;;;;;;4.25;2.03;;;13.60;99.90;;;;;;5022367;28;20029;-41
2023/06/27 02:39:02;;;;;;;3.10;1.70;;;13.50;99.90;;;;;;5023588;28;20104;-41
2023/06/27 02:41:27;;;;;;;2.10;1.77;;;13.40;99.90;;;;;;5020870;28;20033;-38
2023/06/27 02:43:53;;;;;;;3.95;1.92;;;13.40;99.90;;;;;;5019822;28;20550;-41
2023/06/27 02:46:19;;;;;;;3.75;2.38;;;13.30;99.90;;;;;;5024453;28;20491;-39
2023/06/27 02:48:44;;;;;;;3.13;1.80;;;13.30;99.90;;;;;;5022135;28;20029;-41
2023/06/27 02:51:10;;;;;;;4.28;1.98;;;13.20;99.90;;;;;;5021965;28;20033;-41
2023/06/27 02:53:36;;;;;;;3.85;1.83;;;13.30;99.90;;;;;;5020859;28;20426;-40
2023/06/27 02:56:03;;;;;;;2.65;1.80;;;13.10;99.90;;;;;;5026375;28;20025;-37
2023/06/27 02:58:29;;;;;;;2.63;1.80;;;13.10;99.90;;;;;;5019842;28;20376;-41
2023/06/27 03:00:55;;;;;;;2.83;1.83;;;13.20;99.90;;;;;;5024193;28;20030;-41
2023/06/27 03:03:21;;;;;;;2.53;2.03;;;13.20;99.90;;;;;;5025077;28;20436;-42
2023/06/27 03:05:46;;;;;;;3.78;2.00;;;13.20;99.90;;;;;;5022539;28;20033;-40
2023/06/27 03:08:12;;;;;;;2.78;2.00;;;13.40;99.90;;;;;;5020069;28;20037;-42
2023/06/27 03:10:38;;;;;;;2.00;1.83;;;13.40;99.90;;;;;;5023354;28;20025;-37
2023/06/27 03:13:04;;;;;;;2.47;2.28;;;13.40;99.90;;;;;;5020996;28;20112;-41
2023/06/27 03:15:29;;;;;;;4.43;1.98;;;13.40;99.90;;;;;;5024241;28;20729;-42
2023/06/27 03:17:55;;;;;;;3.83;2.28;;;13.40;99.90;;;;;;5023545;28;20022;-38
2023/06/27 03:20:21;;;;;;;3.17;2.00;;;13.30;99.90;;;;;;5022918;28;20101;-42
2023/06/27 03:22:47;;;;;;;2.13;1.90;;;13.30;99.90;;;;;;5024620;28;20037;-40
2023/06/27 03:25:13;;;;;;;3.20;1.88;;;13.30;99.90;;;;;;5022895;28;20045;-39
2023/06/27 03:27:38;;;;;;;3.00;2.70;;;13.30;99.90;;;;;;5021817;28;20446;-41
2023/06/27 03:30:05;;;;;;;2.70;1.90;;;13.30;99.90;;;;;;5020281;28;20467;-41
2023/06/27 03:32:30;;;;;;;4.80;1.90;;;13.30;99.90;;;;;;5020030;28;20038;-38
2023/06/27 03:34:56;;;;;;;5.80;3.15;;;13.40;99.90;;;;;;5006900;28;20036;-41
2023/06/27 03:37:22;;;;;;;2.65;1.80;;;13.40;99.90;;;;;;5021319;28;20025;-40
2023/06/27 03:39:47;;;;;;;3.50;1.92;;;13.40;99.90;;;;;;5022097;28;20033;-38
2023/06/27 03:42:13;;;;;;;1.98;1.75;;;13.30;99.90;;;;;;5003275;28;20065;-41
2023/06/27 03:44:39;;;;;;;3.17;2.00;;;13.40;99.90;;;;;;5022898;28;20078;-40
2023/06/27 03:47:05;;;;;;;3.85;2.00;;;13.40;99.90;;;;;;5022545;28;20815;-42
2023/06/27 03:49:30;;;;;;;4.57;2.10;;;13.50;99.90;;;;;;5020371;28;20794;-38
2023/06/27 03:51:56;;;;;;;4.50;2.20;;;13.50;99.90;;;;;;5021881;28;20220;-42
2023/06/27 03:54:22;;;;;;;2.00;1.80;;;13.50;99.90;;;;;;5023397;28;20475;-41
2023/06/27 03:56:48;;;;;;;3.65;2.00;;;13.40;99.90;;;;;;5020340;28;20049;-41
2023/06/27 03:59:13;;;;;;;3.30;1.65;;;13.40;99.90;;;;;;5021503;28;20802;-41
2023/06/27 04:01:41;;;;;;;4.25;2.00;;;13.50;99.90;;;;;;5021131;28;20030;-40
2023/06/27 04:04:10;;;;;;;4.80;2.00;;;13.30;99.90;;;;;;5024709;28;20034;-39
2023/06/27 04:06:35;;;;;;;2.08;1.75;;;13.20;99.90;;;;;;5024526;28;20441;-35
2023/06/27 04:09:05;;;;;;;3.65;1.90;;;13.20;99.90;;;;;;5023398;28;20022;-34
2023/06/27 04:11:31;;;;;;;2.60;1.80;;;13.20;99.90;;;;;;5020620;28;20692;-37
2023/06/27 04:13:59;;;;;;;5.18;2.25;;;13.30;99.90;;;;;;5020986;28;20061;-34
2023/06/27 04:16:25;;;;;;;6.57;2.22;;;13.30;99.90;;;;;;5019615;28;20029;-33
2023/06/27 04:18:50;;;;;;;3.38;2.10;;;13.40;99.90;;;;;;5021720;28;20025;-37
2023/06/27 04:21:18;;;;;;;4.05;2.28;;;13.40;99.90;;;;;;5022967;28;20475;-34
2023/06/27 04:23:43;;;;;;;2.33;2.10;;;13.40;99.90;;;;;;5022614;28;20090;-33
2023/06/27 04:26:14;;;;;;;3.67;1.75;;;13.50;99.90;;;;;;5023479;28;20033;-37
2023/06/27 04:28:49;;;;;;;8.05;2.40;;;13.50;99.90;;;;;;5020856;28;20112;-37
2023/06/27 04:31:15;;;;;;;2.58;2.15;;;13.60;99.90;;;;;;5019487;28;20030;-33
2023/06/27 04:33:41;;;;;;;7.65;2.67;;;13.60;99.90;;;;;;5020993;28;20372;-34
2023/06/27 04:36:07;;;;;;;2.15;1.90;;;13.70;99.90;;;;;;5021363;28;20724;-33
2023/06/27 04:38:38;;;;;;;10.57;2.20;;;13.70;99.90;;;;;;5024574;28;20557;-33
2023/06/27 04:41:05;;;;;;;3.67;2.00;;;13.70;99.90;;;;;;5022025;28;20029;-34
2023/06/27 04:43:32;;;;;;;4.95;2.83;;;13.70;99.90;;;;;;5023527;28;20053;-33
2023/06/27 04:46:01;;;;;;;2.20;2.00;;;13.70;99.90;;;;;;5021827;28;20037;-33
2023/06/27 04:48:28;;;;;;;6.47;2.30;;;13.80;99.90;;;;;;5021560;28;20048;-33
2023/06/27 04:50:54;;;;;;;5.63;2.33;;;13.80;99.90;;;;;;5020368;28;20042;-36
2023/06/27 04:53:20;;;;;;;2.35;1.90;;;13.90;99.90;;;;;;5021394;28;20100;-34
2023/06/27 04:55:47;;;;;;;5.85;2.22;;;14.00;99.90;;;;;;4999280;28;20068;-35
2023/06/27 04:58:13;;;;;;;7.13;2.40;;;14.00;99.90;;;;;;5021772;28;20029;-36
2023/06/27 05:00:39;;;;;;;3.13;2.20;;;14.10;99.90;;;;;;5021034;28;20456;-33
2023/06/27 05:03:05;;;;;;;4.05;2.53;;;14.20;99.90;;;;;;5017063;28;20144;-34
2023/06/27 05:05:34;;;;;;;2.88;2.10;;;14.10;99.90;;;;;;5021583;28;20439;-35
2023/06/27 05:08:03;;;;;;;5.32;2.30;;;14.20;99.90;;;;;;5020053;28;20029;-36
2023/06/27 05:10:33;;;;;;;4.55;2.70;;;14.20;99.90;;;;;;5023002;28;20043;-34
2023/06/27 05:12:59;;;;;;;2.80;2.03;;;14.30;99.90;;;;;;5020793;28;20128;-37
2023/06/27 05:15:24;;;;;;;6.60;2.20;;;14.40;99.90;;;;;;5020575;28;20044;-36
2023/06/27 05:18:15;;;;;;;5.78;2.65;;;14.50;99.90;;;;;;5021365;28;20026;-34
2023/06/27 05:20:45;;;;;;;4.00;2.50;;;14.50;99.90;;;;;;5019340;28;20111;-34
2023/06/27 05:23:11;;;;;;;1.98;1.73;;;14.50;99.90;;;;;;5017073;28;20033;-35
2023/06/27 05:25:37;;;;;;;4.85;2.40;;;14.60;99.90;;;;;;5019878;28;20042;-33
2023/06/27 05:28:03;;;;;;;5.32;2.45;;;14.60;99.90;;;;;;5019846;28;20075;-35
2023/06/27 05:30:30;;;;;;;2.92;2.22;;;14.60;99.90;;;;;;5020804;28;20069;-33
2023/06/27 05:32:56;;;;;;;5.75;2.42;;;14.70;99.90;;;;;;5021533;28;20081;-33
2023/06/27 05:35:22;;;;;;;3.00;2.20;;;14.70;99.90;;;;;;5017146;28;20029;-35
2023/06/27 05:37:48;;;;;;;4.05;2.28;;;14.80;99.90;;;;;;5013894;28;20104;-33
2023/06/27 05:40:14;;;;;;;3.47;2.25;;;14.90;99.90;;;;;;5019860;28;20496;-35
2023/06/27 05:42:40;;;;;;;4.88;2.97;;;14.90;99.90;;;;;;5019140;28;20787;-35
2023/06/27 05:45:06;;;;;;;4.55;2.47;;;14.90;99.90;;;;;;5018593;28;20450;-33
2023/06/27 05:47:32;;;;;;;4.20;2.70;;;15.00;99.90;;;;;;5019842;28;20140;-36
2023/06/27 05:49:58;;;;;;;4.65;2.33;;;15.10;99.90;;;;;;5018189;28;20044;-33
2023/06/27 05:52:23;;;;;;;3.67;2.45;;;15.00;99.90;;;;;;5019409;28;20443;-38
2023/06/27 05:54:50;;;;;;;4.55;2.40;;;15.10;99.90;;;;;;5020571;28;20487;-33
2023/06/27 05:57:16;;;;;;;6.78;2.60;;;15.20;99.90;;;;;;5016811;28;20045;-33
2023/06/27 05:59:41;;;;;;;5.30;2.60;;;15.20;99.90;;;;;;5021534;28;20501;-34
2023/06/27 06:02:07;;;;;;;3.03;2.10;;;15.20;99.90;;;;;;5018687;28;20507;-34
2023/06/27 06:04:33;;;;;;;3.95;2.50;;;15.20;99.90;;;;;;5019377;28;20105;-36
2023/06/27 06:06:58;;;;;;;3.90;2.58;;;15.20;99.90;;;;;;5015947;28;20034;-34
2023/06/27 06:09:25;;;;;;;7.63;2.58;;;15.30;99.90;;;;;;5016959;28;20029;-33
2023/06/27 06:11:50;;;;;;;5.00;2.65;;;15.40;99.90;;;;;;5015841;28;20679;-38
2023/06/27 06:14:16;;;;;;;3.67;2.40;;;15.50;99.90;;;;;;5018597;28;20033;-33
2023/06/27 06:16:42;;;;;;;3.47;2.92;;;15.60;99.90;;;;;;5017254;28;20029;-34
2023/06/27 06:19:08;;;;;;;3.90;2.85;;;15.60;99.90;;;;;;5019144;28;20121;-34
2023/06/27 06:21:33;;;;;;;4.15;2.75;;;15.60;99.90;;;;;;5017383;28;20033;-34
2023/06/27 06:23:59;;;;;;;3.50;2.75;;;15.60;99.90;;;;;;5017181;28;20107;-33
2023/06/27 06:26:24;;;;;;;6.13;2.80;;;15.70;99.90;;;;;;5019241;28;20026;-32
2023/06/27 06:28:50;;;;;;;7.13;2.53;;;15.80;99.90;;;;;;5024546;28;20033;-33
2023/06/27 06:31:16;;;;;;;3.97;2.60;;;15.80;99.90;;;;;;5023590;28;20445;-31
2023/06/27 06:33:45;;;;;;;6.65;2.45;;;15.90;99.90;;;;;;5021921;28;20029;-31
2023/06/27 06:36:12;;;;;;;5.15;2.53;;;15.90;99.90;;;;;;5021201;28;20379;-32
2023/06/27 06:38:38;;;;;;;6.80;2.83;;;16.00;99.90;;;;;;5025448;28;20038;-31
2023/06/27 06:41:04;;;;;;;4.70;3.00;;;16.20;99.90;;;;;;5020943;28;20059;-31
2023/06/27 06:43:30;;;;;;;3.45;2.33;;;16.30;99.90;;;;;;5027387;28;20041;-36
2023/06/27 06:45:56;;;;;;;7.13;2.70;;;16.40;99.90;;;;;;5029058;28;20034;-32
2023/06/27 06:48:23;;;;;;;4.25;3.00;;;16.60;99.90;;;;;;5010602;28;20103;-32
2023/06/27 06:50:50;;;;;;;5.90;2.55;;;16.80;99.90;;;;;;5026304;28;20034;-31
2023/06/27 06:53:17;;;;;;;3.47;2.38;;;16.90;99.90;;;;;;5028394;28;20035;-33
2023/06/27 06:55:42;;;;;;;5.43;2.78;;;17.00;99.90;;;;;;5031014;28;20482;-31
2023/06/27 06:58:08;;;;;;;8.02;2.67;;;17.00;99.90;;;;;;5027645;28;20029;-31
2023/06/27 07:00:33;;;;;;;3.42;2.40;;;17.10;99.90;;;;;;5026773;28;20159;-31
2023/06/27 07:02:59;;;;;;;5.18;2.50;;;17.30;99.90;;;;;;5027872;28;20030;-33
2023/06/27 07:05:25;;;;;;;4.40;2.78;;;17.30;99.90;;;;;;5021294;28;20550;-31
2023/06/27 07:07:50;;;;;;;5.00;2.65;;;17.40;99.90;;;;;;5024371;28;20033;-32
2023/06/27 07:10:16;;;;;;;4.38;2.80;;;17.50;99.90;;;;;;5022706;28;20029;-31
2023/06/27 07:12:42;;;;;;;4.10;2.67;;;17.60;99.90;;;;;;5028468;28;20053;-32
2023/06/27 07:15:08;;;;;;;5.43;2.75;;;17.70;99.90;;;;;;5027727;28;20159;-33
2023/06/27 07:17:34;;;;;;;3.08;2.13;;;17.70;99.90;;;;;;5027984;28;20108;-32
2023/06/27 07:20:00;;;;;;;4.72;2.42;;;17.90;99.90;;;;;;5024381;28;20586;-32
2023/06/27 07:22:26;;;;;;;4.45;2.40;;;18.00;99.90;;;;;;5026790;28;20060;-32
2023/06/27 07:24:52;;;;;;;3.47;2.67;;;18.00;99.90;;;;;;5025885;28;20073;-32
2023/06/27 07:27:18;;;;;;;3.50;2.17;;;18.00;99.90;;;;;;5022923;28;20033;-33
2023/06/27 07:29:44;;;;;;;3.30;2.30;;;18.00;99.90;;;;;;5023162;28;20033;-33
2023/06/27 07:32:11;;;;;;;4.68;2.40;;;18.10;99.90;;;;;;5024804;28;20045;-35
2023/06/27 07:34:37;;;;;;;4.90;2.50;;;18.10;99.90;;;;;;5017963;28;20025;-32
2023/06/27 07:37:03;;;;;;;3.80;2.17;;;18.00;99.90;;;;;;5021583;28;20034;-35
2023/06/27 07:39:28;;;;;;;4.22;2.30;;;18.00;99.90;;;;;;5017430;28;20103;-35
2023/06/27 07:41:54;;;;;;;4.60;2.17;;;18.10;99.90;;;;;;5019833;28;20033;-34
2023/06/27 07:44:20;;;;;;;4.13;2.53;;;18.20;99.90;;;;;;5021968;28;20087;-35
2023/06/27 07:46:45;;;;;;;4.80;2.63;;;18.30;99.90;;;;;;5023843;28;20056;-34
2023/06/27 07:49:11;;;;;;;4.90;2.47;;;18.20;99.90;;;;;;5021895;28;20036;-37
2023/06/27 07:51:37;;;;;;;2.97;2.55;;;18.00;99.90;;;;;;5024490;28;20323;-35
2023/06/27 07:54:03;;;;;;;2.78;2.33;;;17.90;99.90;;;;;;5021742;28;20080;-36
2023/06/27 07:56:29;;;;;;;4.57;2.30;;;17.90;99.90;;;;;;5020211;28;20053;-34
2023/06/27 07:58:55;;;;;;;5.22;1.80;;;18.10;99.90;;;;;;5024195;28;20087;-34
2023/06/27 08:01:21;;;;;;;2.55;1.92;;;18.40;99.90;;;;;;5020709;28;20363;-33
2023/06/27 08:03:46;;;;;;;5.07;2.22;;;18.60;99.90;;;;;;5021921;28;20559;-34
2023/06/27 08:06:12;;;;;;;2.40;2.20;;;18.60;99.90;;;;;;5020991;28;20383;-33
2023/06/27 08:08:38;;;;;;;3.08;2.17;;;18.50;99.90;;;;;;5020427;28;20037;-33
2023/06/27 08:11:04;;;;;;;3.92;2.53;;;18.60;99.90;;;;;;5018984;28;20478;-32
2023/06/27 08:13:30;;;;;;;3.60;2.00;;;18.70;99.90;;;;;;5025649;28;20034;-32
2023/06/27 08:15:55;;;;;;;3.00;2.17;;;18.50;99.90;;;;;;5023997;28;20057;-35
2023/06/27 08:18:21;;;;;;;4.22;2.40;;;18.70;99.90;;;;;;5023005;28;20067;-32
2023/06/27 08:20:47;;;;;;;3.13;1.90;;;18.80;99.90;;;;;;5021589;28;20025;-33
2023/06/27 08:23:13;;;;;;;5.97;1.95;;;19.00;99.90;;;;;;5023024;28;20033;-34
2023/06/27 08:25:38;;;;;;;2.17;1.77;;;19.50;99.90;;;;;;5022873;28;20025;-34
2023/06/27 08:28:04;;;;;;;3.85;2.28;;;20.00;99.90;;;;;;5022187;28;20091;-34
2023/06/27 08:30:31;;;;;;;3.50;1.90;;;20.30;99.90;;;;;;5022781;28;20041;-35
2023/06/27 08:32:56;;;;;;;2.88;2.15;;;20.00;99.90;;;;;;5021982;28;20037;-33
2023/06/27 08:35:24;;;;;;;2.65;1.90;;;20.00;99.90;;;;;;5018783;28;20029;-33
2023/06/27 08:37:49;;;;;;;4.85;1.95;;;19.90;99.90;;;;;;5020304;28;20030;-33
2023/06/27 08:40:25;;;;;;;5.95;2.40;;;20.00;99.90;;;;;;5016570;28;20052;-38
2023/06/27 08:42:51;;;;;;;3.70;1.90;;;19.60;99.90;;;;;;5001467;28;20502;-33
2023/06/27 08:45:17;;;;;;;5.55;2.20;;;19.40;99.90;;;;;;5022076;28;20037;-41
2023/06/27 08:47:45;;;;;;;4.80;2.20;;;19.50;99.90;;;;;;5007217;28;20042;-41
2023/06/27 08:50:13;;;;;;;4.85;2.20;;;19.50;99.90;;;;;;5021608;28;20033;-38
2023/06/27 08:52:54;;;;;;;4.85;2.03;;;19.60;99.90;;;;;;5023077;28;20495;-42
2023/06/27 08:55:47;;;;;;;3.83;2.08;;;19.60;99.90;;;;;;5021698;28;20037;-40
2023/06/27 08:58:15;;;;;;;2.95;1.95;;;19.50;99.90;;;;;;5022739;28;20507;-41
2023/06/27 09:00:46;;;;;;;5.18;2.40;;;19.60;99.90;;;;;;5021497;28;20592;-38
2023/06/27 09:03:12;;;;;;;4.72;2.00;;;19.90;99.90;;;;;;5020657;28;20029;-40
2023/06/27 09:05:38;;;;;;;2.13;1.92;;;20.20;99.90;;;;;;5017824;28;20049;-42
2023/06/27 09:08:04;;;;;;;5.68;2.30;;;20.30;99.90;;;;;;5022187;28;20034;-39
2023/06/27 09:10:30;;;;;;;5.63;2.15;;;20.40;99.90;;;;;;5020875;28;20590;-41
2023/06/27 09:12:57;;;;;;;2.17;1.92;;;20.20;99.90;;;;;;5017920;28;20026;-42
2023/06/27 09:15:23;;;;;;;2.75;2.20;;;20.00;99.90;;;;;;5020304;28;20092;-40
2023/06/27 09:17:48;;;;;;;2.60;2.40;;;20.40;99.90;;;;;;5019214;28;20057;-41
2023/06/27 09:20:19;;;;;;;3.95;2.03;;;20.70;99.90;;;;;;5018807;28;20123;-40
2023/06/27 09:22:45;;;;;;;2.33;1.90;;;20.80;99.90;;;;;;5021986;28;20029;-42
2023/06/27 09:25:15;;;;;;;5.60;1.98;;;21.20;99.90;;;;;;5021730;28;20037;-36
2023/06/27 09:27:41;;;;;;;5.43;1.95;;;21.50;99.90;;;;;;5022270;28;20044;-35
2023/06/27 09:30:09;;;;;;;4.22;1.70;;;21.30;99.90;;;;;;5019545;28;20151;-39
2023/06/27 09:32:50;;;;;;;4.30;1.88;;;21.70;99.90;;;;;;5018724;28;20538;-41
2023/06/27 09:35:16;;;;;;;2.67;1.75;;;22.20;99.90;;;;;;5022681;28;20471;-39
2023/06/27 09:37:42;;;;;;;4.82;2.05;;;22.10;99.90;;;;;;5023980;28;20537;-41
2023/06/27 09:40:24;;;;;;;3.45;1.90;;;22.20;99.90;;;;;;5019918;28;20105;-38
2023/06/27 09:42:54;;;;;;;5.65;1.90;;;22.70;99.90;;;;;;5020112;28;20041;-36
2023/06/27 09:45:21;;;;;;;2.42;2.20;;;23.00;99.90;;;;;;5021678;28;20037;-39
2023/06/27 09:47:51;;;;;;;4.10;1.83;;;23.10;99.90;;;;;;5020613;28;20043;-42
2023/06/27 09:50:23;;;;;;;1.65;1.55;;;22.80;99.90;;;;;;5019007;28;20025;-40
2023/06/27 09:52:53;;;;;;;3.05;1.80;;;22.50;99.90;;;;;;5017750;28;20112;-41
2023/06/27 09:55:21;;;;;;;3.83;1.85;;;22.20;99.90;;;;;;5020995;28;20152;-33
2023/06/27 09:57:47;;;;;;;3.80;1.88;;;22.30;99.90;;;;;;5022773;28;20025;-41
2023/06/27 10:00:16;;;;;;;3.05;2.00;;;22.60;99.90;;;;;;5019481;28;20034;-42
2023/06/27 10:02:49;;;;;;;3.45;1.73;;;22.70;99.90;;;;;;5015594;28;20053;-42
2023/06/27 10:05:22;;;;;;;5.90;2.25;;;23.40;99.90;;;;;;5020360;28;20029;-39
2023/06/27 10:07:49;;;;;;;4.30;3.15;;;23.40;99.90;;;;;;5020106;28;20041;-41
2023/06/27 10:10:15;;;;;;;3.63;1.80;;;23.20;99.90;;;;;;5018263;28;20623;-37
2023/06/27 10:12:42;;;;;;;4.03;1.80;;;23.10;99.90;;;;;;5018577;28;20099;-42
2023/06/27 10:15:09;;;;;;;7.80;2.58;;;22.70;99.90;;;;;;5018476;28;20068;-41
2023/06/27 10:17:35;;;;;;;3.57;2.00;;;22.20;99.90;;;;;;5021469;28;20033;-39
2023/06/27 10:20:03;;;;;;;4.15;1.80;;;22.00;99.90;;;;;;5019869;28;20028;-39
2023/06/27 10:22:32;;;;;;;3.58;1.80;;;22.10;99.90;;;;;;5024712;28;20562;-40
2023/06/27 10:25:04;;;;;;;4.65;2.00;;;22.00;99.90;;;;;;5023792;28;20040;-41
2023/06/27 10:27:33;;;;;;;2.75;1.90;;;21.90;99.90;;;;;;5025028;28;20048;-39
2023/06/27 10:30:04;;;;;;;6.43;1.88;;;21.80;99.90;;;;;;5024733;28;20037;-41
2023/06/27 10:32:46;;;;;;;3.53;1.95;;;21.70;99.90;;;;;;5023402;28;20045;-39
2023/06/27 10:35:24;;;;;;;3.40;1.90;;;21.70;99.90;;;;;;5023676;28;20095;-40
2023/06/27 10:38:08;;;;;;;2.22;2.03;;;21.60;99.90;;;;;;5026325;28;20033;-39
2023/06/27 10:41:04;;;;;;;4.53;2.10;;;21.40;99.90;;;;;;5022353;28;20418;-41
2023/06/27 10:43:45;;;;;;;1.95;1.75;;;21.30;99.90;;;;;;5023404;28;20326;-38
2023/06/27 10:46:17;;;;;;;3.90;1.80;;;22.10;99.90;;;;;;5022516;28;20072;-40
2023/06/27 10:48:55;;;;;;;2.97;1.85;;;22.40;99.90;;;;;;5023049;28;20028;-39
2023/06/27 10:51:23;;;;;;;3.63;1.88;;;22.70;99.90;;;;;;5020197;28;20034;-41
2023/06/27 10:54:07;;;;;;;2.70;1.70;;;22.50;99.90;;;;;;5007959;28;20038;-37
2023/06/27 10:56:37;;;;;;;4.65;2.08;;;22.70;99.90;;;;;;5021625;28;20041;-40
2023/06/27 10:59:04;;;;;;;3.65;1.90;;;22.90;99.90;;;;;;5024237;28;20029;-41
2023/06/27 11:01:30;;;;;;;;;;;23.00;99.90;;;;;;5023173;28;20060;-38
2023/06/27 11:03:59;;;;;;;4.55;2.35;;;22.60;99.90;;;;;;5024367;28;19935;-41
2023/06/27 11:06:41;;;;;;;4.07;1.98;;;22.90;99.90;;;;;;5025148;28;20116;-30
2023/06/27 11:09:10;;;;;;;4.00;1.77;;;23.10;99.90;;;;;;5025853;28;20041;-30
2023/06/27 11:11:37;;;;;;;5.30;1.90;;;23.30;99.90;;;;;;5023014;28;20072;-34
2023/06/27 11:14:07;;;;;;;3.30;1.70;;;23.20;99.90;;;;;;5028099;28;20051;-31
2023/06/27 11:16:34;;;;;;;3.63;1.63;;;23.40;99.90;;;;;;5025169;28;20036;-31
2023/06/27 11:19:03;;;;;;;2.88;1.65;;;23.50;99.90;;;;;;5023793;28;20025;-35
2023/06/27 11:21:30;;;;;;;3.25;1.95;;;23.40;99.90;;;;;;5022319;28;20061;-31
2023/06/27 11:23:59;;;;;;;2.03;1.80;;;23.40;99.90;;;;;;5026318;28;20108;-30
2023/06/27 11:26:26;;;;;;;2.95;1.67;;;23.70;99.90;;;;;;5025576;28;20095;-30
2023/06/27 11:28:52;;;;;;;2.10;1.83;;;23.40;99.90;;;;;;5022792;28;20116;-33
2023/06/27 11:31:19;;;;;;;5.53;1.90;;;23.40;99.90;;;;;;5022524;28;20558;-32
2023/06/27 11:33:44;;;;;;;2.95;1.65;;;23.30;99.90;;;;;;5025319;28;20022;-30
2023/06/27 11:36:10;;;;;;;3.65;1.92;;;22.80;99.90;;;;;;5024118;28;20386;-29
2023/06/27 11:38:36;;;;;;;2.97;1.90;;;22.70;99.90;;;;;;5026300;28;20069;-30
2023/06/27 11:41:02;;;;;;;1.95;1.60;;;23.00;99.90;;;;;;5021137;28;20029;-29
2023/06/27 11:43:28;;;;;;;6.60;2.20;;;23.10;99.90;;;;;;5025055;28;20132;-30
2023/06/27 11:45:58;;;;;;;3.53;1.88;;;23.20;99.90;;;;;;5021595;28;20030;-32
2023/06/27 11:48:23;;;;;;;2.47;1.80;;;23.20;99.90;;;;;;5025490;28;20496;-30
2023/06/27 11:50:58;;;;;;;2.83;1.92;;;22.40;99.90;;;;;;5022376;28;20037;-31
2023/06/27 11:53:26;;;;;;;3.55;2.28;;;21.90;99.90;;;;;;5026180;28;20560;-30
2023/06/27 11:55:52;;;;;;;8.30;2.72;;;22.00;99.90;;;;;;5023448;28;20029;-34
2023/06/27 11:58:32;;;;;;;5.90;2.00;;;21.20;99.90;;;;;;5020145;28;20479;-30
2023/06/27 12:00:59;;;;;;;8.10;2.33;;;20.80;99.90;;;;;;5018940;28;20049;-31
2023/06/27 12:03:27;;;;;;;3.22;2.22;;;20.60;99.90;;;;;;5025297;28;20364;-30
2023/06/27 12:05:55;;;;;;;3.40;2.08;;;20.50;99.90;;;;;;5027012;28;20036;-31
2023/06/27 12:08:22;;;;;;;2.67;1.98;;;20.50;99.90;;;;;;5024824;28;20037;-30
2023/06/27 12:10:55;;;;;;;3.92;2.25;;;20.50;99.90;;;;;;5022115;28;20050;-30
2023/06/27 12:13:20;;;;;;;4.07;2.30;;;20.60;99.90;;;;;;5022497;28;20114;-34
2023/06/27 12:15:47;;;;;;;5.85;2.30;;;20.70;99.90;;;;;;5021373;28;20022;-39
2023/06/27 12:18:23;;;;;;;4.07;2.15;;;20.70;99.90;;;;;;5020783;28;20068;-38
2023/06/27 12:20:51;;;;;;;5.38;2.40;;;20.70;99.90;;;;;;5020924;28;20037;-37
2023/06/27 12:23:17;;;;;;;6.20;2.15;;;20.90;99.90;;;;;;5018198;28;20033;-37
2023/06/27 12:25:43;;;;;;;2.28;1.83;;;20.90;99.90;;;;;;5022661;28;20124;-41
2023/06/27 12:28:08;;;;;;;3.20;1.80;;;20.90;99.90;;;;;;5022653;28;20120;-40
2023/06/27 12:30:34;;;;;;;3.55;2.00;;;21.10;99.90;;;;;;5022347;28;20033;-43
2023/06/27 12:33:01;;;;;;;3.70;2.20;;;21.20;99.90;;;;;;5021512;28;20120;-41
2023/06/27 12:35:26;;;;;;;4.53;2.00;;;21.10;99.90;;;;;;5026476;28;20036;-37
2023/06/27 12:37:52;;;;;;;4.90;2.25;;;20.90;99.90;;;;;;5022911;28;20360;-37
2023/06/27 12:40:20;;;;;;;4.40;2.03;;;20.80;99.90;;;;;;5020601;28;20029;-41
2023/06/27 12:42:45;;;;;;;3.42;2.15;;;20.80;99.90;;;;;;5022071;28;20136;-40
2023/06/27 12:45:11;;;;;;;3.53;1.98;;;21.00;99.90;;;;;;5022941;28;20128;-39
2023/06/27 12:47:41;;;;;;;6.25;2.30;;;21.00;99.90;;;;;;5018097;28;20026;-38
2023/06/27 12:50:10;;;;;;;5.00;2.28;;;21.20;99.90;;;;;;5021354;28;20051;-38